createdAt,value
2023-04-23T00:01:59.561Z,13.00
2023-04-23T00:04:28.869Z,12.90
2023-04-23T00:06:57.126Z,12.90
2023-04-23T00:09:24.377Z,13.00
2023-04-23T00:11:51.354Z,13.00
2023-04-23T00:14:18.288Z,12.90
2023-04-23T00:16:45.329Z,12.90
2023-04-23T00:19:11.986Z,12.80
2023-04-23T00:21:38.639Z,12.80
2023-04-23T00:24:05.572Z,12.80
2023-04-23T00:26:32.427Z,12.80
2023-04-23T00:28:59.064Z,12.80
2023-04-23T00:31:27.141Z,12.70
2023-04-23T00:33:54.159Z,12.70
2023-04-23T00:36:20.770Z,12.80
2023-04-23T00:38:48.084Z,12.80
2023-04-23T00:41:15.241Z,12.80
2023-04-23T00:43:41.853Z,12.80
2023-04-23T00:46:09.031Z,12.80
2023-04-23T00:48:36.837Z,12.90
2023-04-23T00:51:05.405Z,12.80
2023-04-23T00:53:33.771Z,12.80
2023-04-23T00:56:04.188Z,12.70
2023-04-23T00:58:33.013Z,12.80
2023-04-23T01:01:02.613Z,12.70
2023-04-23T01:03:31.497Z,12.80
2023-04-23T01:05:59.114Z,12.70
2023-04-23T01:08:26.318Z,12.60
2023-04-23T01:10:54.523Z,12.60
2023-04-23T01:13:22.400Z,12.60
2023-04-23T01:15:49.516Z,12.60
2023-04-23T01:18:16.444Z,12.50
2023-04-23T01:20:43.816Z,12.50
2023-04-23T01:23:10.823Z,12.50
2023-04-23T01:25:37.780Z,12.50
2023-04-23T01:28:06.819Z,12.60
2023-04-23T01:30:33.809Z,12.60
2023-04-23T01:33:01.650Z,12.60
2023-04-23T01:35:29.217Z,12.50
2023-04-23T01:37:57.292Z,12.50
2023-04-23T01:40:23.876Z,12.50
2023-04-23T01:42:50.674Z,12.50
2023-04-23T01:45:20.220Z,12.60
2023-04-23T01:47:50.408Z,12.60
2023-04-23T01:50:17.251Z,12.60
2023-04-23T01:52:45.596Z,12.60
2023-04-23T01:55:12.239Z,12.60
2023-04-23T01:57:38.885Z,12.70
2023-04-23T02:00:08.340Z,12.60
2023-04-23T02:02:35.942Z,12.60
2023-04-23T02:05:04.659Z,12.60
2023-04-23T02:07:34.894Z,12.60
2023-04-23T02:10:02.711Z,12.70
2023-04-23T02:12:29.380Z,12.60
2023-04-23T02:14:56.091Z,12.70
2023-04-23T02:17:23.257Z,12.60
2023-04-23T02:19:50.203Z,12.60
2023-04-23T02:22:17.842Z,12.60
2023-04-23T02:24:44.594Z,12.50
2023-04-23T02:27:11.372Z,12.50
2023-04-23T02:29:38.048Z,12.50
2023-04-23T02:32:04.794Z,12.60
2023-04-23T02:34:31.522Z,12.50
2023-04-23T02:36:58.520Z,12.50
2023-04-23T02:39:25.508Z,12.50
2023-04-23T02:41:52.083Z,12.40
2023-04-23T02:44:18.834Z,12.40
2023-04-23T02:46:45.628Z,12.40
2023-04-23T02:49:12.403Z,12.50
2023-04-23T02:51:39.111Z,12.50
2023-04-23T02:54:06.035Z,12.50
2023-04-23T02:56:32.899Z,12.50
2023-04-23T02:59:01.276Z,12.50
2023-04-23T03:01:27.925Z,12.50
2023-04-23T03:03:54.964Z,12.40
2023-04-23T03:06:21.728Z,12.50
2023-04-23T03:08:48.349Z,12.40
2023-04-23T03:11:15.041Z,12.50
2023-04-23T03:13:41.693Z,12.50
2023-04-23T03:16:08.798Z,12.50
2023-04-23T03:18:35.581Z,12.50
2023-04-23T03:21:02.589Z,12.50
2023-04-23T03:23:29.709Z,12.50
2023-04-23T03:25:56.309Z,12.50
2023-04-23T03:28:23.014Z,12.50
2023-04-23T03:30:50.016Z,12.40
2023-04-23T03:33:16.724Z,12.40
2023-04-23T03:35:43.452Z,12.50
2023-04-23T03:38:10.033Z,12.50
2023-04-23T03:40:36.588Z,12.40
2023-04-23T03:43:03.174Z,12.40
2023-04-23T03:45:30.930Z,12.40
2023-04-23T03:47:57.613Z,12.40
2023-04-23T03:50:24.242Z,12.40
2023-04-23T03:52:52.718Z,12.40
2023-04-23T03:55:21.009Z,12.40
2023-04-23T03:57:47.604Z,12.50
2023-04-23T04:00:14.675Z,12.40
2023-04-23T04:02:41.581Z,12.40
2023-04-23T04:05:11.312Z,12.40
2023-04-23T04:07:38.483Z,12.40
2023-04-23T04:10:06.728Z,12.40
2023-04-23T04:12:33.314Z,12.40
2023-04-23T04:15:00.154Z,12.40
2023-04-23T04:17:26.917Z,12.30
2023-04-23T04:19:53.694Z,12.30
2023-04-23T04:22:20.547Z,12.30
2023-04-23T04:24:47.478Z,12.40
2023-04-23T04:27:14.851Z,12.30
2023-04-23T04:29:41.443Z,12.30
2023-04-23T04:32:09.819Z,12.30
2023-04-23T04:34:38.312Z,12.30
2023-04-23T04:37:05.316Z,12.40
2023-04-23T04:39:31.925Z,12.30
2023-04-23T04:41:59.873Z,12.40
2023-04-23T04:44:26.521Z,12.40
2023-04-23T04:46:53.822Z,12.40
2023-04-23T04:49:21.798Z,12.30
2023-04-23T04:51:48.484Z,12.30
2023-04-23T04:54:15.518Z,12.30
2023-04-23T04:56:42.092Z,12.30
2023-04-23T04:59:08.691Z,12.40
2023-04-23T05:01:37.233Z,12.40
2023-04-23T05:04:04.247Z,12.40
2023-04-23T05:06:32.556Z,12.40
2023-04-23T05:08:59.240Z,12.40
2023-04-23T05:11:25.926Z,12.40
2023-04-23T05:13:52.587Z,12.40
2023-04-23T05:16:19.639Z,12.40
2023-04-23T05:18:46.428Z,12.40
2023-04-23T05:21:13.976Z,12.40
2023-04-23T05:23:40.693Z,12.30
2023-04-23T05:26:07.535Z,12.30
2023-04-23T05:28:34.178Z,12.30
2023-04-23T05:31:00.800Z,12.20
2023-04-23T05:33:33.456Z,12.20
2023-04-23T05:36:06.208Z,12.20
2023-04-23T05:38:33.143Z,12.20
2023-04-23T05:41:00.277Z,12.20
2023-04-23T05:43:26.850Z,12.20
2023-04-23T05:45:53.458Z,12.30
2023-04-23T05:48:20.133Z,12.30
2023-04-23T05:50:47.067Z,12.30
2023-04-23T05:53:14.413Z,12.40
2023-04-23T05:55:40.962Z,12.40
2023-04-23T05:58:07.668Z,12.40
2023-04-23T06:00:35.451Z,12.50
2023-04-23T06:03:02.272Z,12.40
2023-04-23T06:05:29.223Z,12.40
2023-04-23T06:07:56.061Z,12.40
2023-04-23T06:10:22.676Z,12.30
2023-04-23T06:12:49.338Z,12.30
2023-04-23T06:15:15.966Z,12.20
2023-04-23T06:17:42.611Z,12.20
2023-04-23T06:20:11.595Z,12.20
2023-04-23T06:22:38.642Z,12.20
2023-04-23T06:25:05.927Z,12.20
2023-04-23T06:27:33.669Z,12.30
2023-04-23T06:30:00.253Z,12.30
2023-04-23T06:32:27.017Z,12.40
2023-04-23T06:35:00.694Z,12.50
2023-04-23T06:37:31.129Z,12.50
2023-04-23T06:39:59.066Z,12.60
2023-04-23T06:42:25.914Z,12.60
2023-04-23T06:44:52.605Z,12.70
2023-04-23T06:47:19.620Z,12.70
2023-04-23T06:49:46.351Z,12.80
2023-04-23T06:52:12.921Z,12.80
2023-04-23T06:54:39.760Z,12.90
2023-04-23T06:57:06.599Z,12.90
2023-04-23T06:59:33.257Z,13.00
2023-04-23T07:01:59.864Z,13.00
2023-04-23T07:04:26.811Z,13.10
2023-04-23T07:06:53.426Z,13.10
2023-04-23T07:09:20.054Z,13.20
2023-04-23T07:11:47.198Z,13.20
2023-04-23T07:14:13.827Z,13.20
2023-04-23T07:16:40.523Z,13.30
2023-04-23T07:19:07.195Z,13.30
2023-04-23T07:21:33.910Z,13.30
2023-04-23T07:24:03.263Z,13.40
2023-04-23T07:26:29.883Z,13.40
2023-04-23T07:28:56.596Z,13.50
2023-04-23T07:31:23.798Z,13.50
2023-04-23T07:33:50.498Z,13.50
2023-04-23T07:36:17.148Z,13.60
2023-04-23T07:38:43.807Z,13.60
2023-04-23T07:41:10.506Z,13.60
2023-04-23T07:43:37.180Z,13.70
2023-04-23T07:46:04.968Z,13.70
2023-04-23T07:48:31.735Z,13.70
2023-04-23T07:50:58.337Z,13.80
2023-04-23T07:53:24.998Z,13.80
2023-04-23T07:55:52.875Z,13.90
2023-04-23T07:58:19.606Z,13.90
2023-04-23T08:00:46.357Z,14.00
2023-04-23T08:03:13.037Z,14.00
2023-04-23T08:05:41.157Z,14.00
2023-04-23T08:08:08.825Z,14.10
2023-04-23T08:10:36.197Z,14.20
2023-04-23T08:13:03.186Z,14.20
2023-04-23T08:15:29.958Z,14.30
2023-04-23T08:17:56.645Z,14.40
2023-04-23T08:20:23.465Z,14.40
2023-04-23T08:22:53.518Z,14.50
2023-04-23T08:25:21.066Z,14.60
2023-04-23T08:27:47.761Z,14.60
2023-04-23T08:30:14.650Z,14.70
2023-04-23T08:32:41.327Z,14.70
2023-04-23T08:35:08.523Z,14.70
2023-04-23T08:37:35.191Z,14.70
2023-04-23T08:40:01.938Z,14.80
2023-04-23T08:42:42.233Z,14.80
2023-04-23T08:45:09.512Z,14.90
2023-04-23T08:47:40.384Z,15.00
2023-04-23T08:50:08.511Z,15.10
2023-04-23T08:52:40.456Z,15.10
2023-04-23T08:55:11.792Z,15.10
2023-04-23T08:57:41.895Z,15.30
2023-04-23T09:00:10.966Z,15.30
2023-04-23T09:02:39.781Z,15.40
2023-04-23T09:05:07.039Z,15.40
2023-04-23T09:07:34.882Z,15.40
2023-04-23T09:10:02.653Z,15.40
2023-04-23T09:12:29.988Z,15.40
2023-04-23T09:14:56.991Z,15.40
2023-04-23T09:17:24.518Z,15.50
2023-04-23T09:19:52.633Z,15.70
2023-04-23T09:22:48.505Z,15.80
2023-04-23T09:25:17.654Z,15.80
2023-04-23T09:27:45.239Z,15.90
2023-04-23T09:30:12.491Z,16.00
2023-04-23T09:32:42.002Z,16.10
2023-04-23T09:35:10.643Z,16.20
2023-04-23T09:37:37.483Z,16.30
2023-04-23T09:40:09.419Z,16.30
2023-04-23T09:42:37.240Z,16.40
2023-04-23T09:45:07.304Z,16.40
2023-04-23T09:47:48.476Z,16.40
2023-04-23T09:50:15.331Z,16.50
2023-04-23T09:52:42.318Z,16.60
2023-04-23T09:55:09.422Z,16.60
2023-04-23T09:57:41.130Z,16.60
2023-04-23T10:00:17.276Z,16.60
2023-04-23T10:02:49.213Z,16.70
2023-04-23T10:07:49.726Z,16.60
2023-04-23T10:10:16.899Z,16.60
2023-04-23T10:12:54.228Z,16.60
2023-04-23T10:15:25.215Z,16.60
2023-04-23T10:17:52.898Z,16.60
2023-04-23T10:20:22.161Z,16.60
2023-04-23T10:22:49.561Z,16.80
2023-04-23T10:25:17.253Z,16.80
2023-04-23T10:27:53.723Z,16.80
2023-04-23T10:30:22.194Z,16.90
2023-04-23T10:32:49.857Z,17.00
2023-04-23T10:35:16.730Z,17.10
2023-04-23T10:37:45.767Z,17.20
2023-04-23T10:40:15.098Z,17.10
2023-04-23T10:42:44.749Z,17.10
2023-04-23T10:47:48.558Z,17.10
2023-04-23T10:50:37.780Z,17.00
2023-04-23T10:53:05.303Z,16.90
2023-04-23T10:55:32.851Z,16.90
2023-04-23T10:58:04.732Z,16.90
2023-04-23T11:00:52.130Z,16.90
2023-04-23T11:03:45.260Z,16.90
2023-04-23T11:06:39.706Z,17.00
2023-04-23T11:09:36.004Z,17.00
2023-04-23T11:12:06.017Z,17.10
2023-04-23T11:14:42.644Z,17.20
2023-04-23T11:17:12.978Z,17.10
2023-04-23T11:19:44.018Z,17.00
2023-04-23T11:22:17.291Z,17.10
2023-04-23T11:24:46.193Z,17.10
2023-04-23T11:27:15.605Z,17.10
2023-04-23T11:29:45.029Z,17.10
2023-04-23T11:32:16.159Z,17.10
2023-04-23T11:34:44.729Z,17.10
2023-04-23T11:37:15.553Z,17.20
2023-04-23T11:39:47.343Z,17.30
2023-04-23T11:42:15.398Z,17.40
2023-04-23T11:44:46.439Z,17.40
2023-04-23T11:47:14.701Z,17.50
2023-04-23T11:49:43.220Z,17.50
2023-04-23T11:52:11.195Z,17.50
2023-04-23T11:54:40.684Z,17.60
2023-04-23T11:57:08.349Z,17.70
2023-04-23T11:59:34.994Z,17.70
2023-04-23T12:02:01.642Z,17.80
2023-04-23T12:04:30.285Z,17.90
2023-04-23T12:06:58.516Z,17.90
2023-04-23T12:09:29.102Z,18.00
2023-04-23T12:11:58.021Z,17.90
2023-04-23T12:14:29.378Z,18.00
2023-04-23T12:16:57.927Z,17.90
2023-04-23T12:19:29.781Z,17.80
2023-04-23T12:22:01.445Z,17.90
2023-04-23T12:24:45.588Z,17.90
2023-04-23T12:27:15.794Z,17.90
2023-04-23T12:29:42.903Z,18.00
2023-04-23T12:32:11.770Z,18.10
2023-04-23T12:34:54.965Z,18.10
2023-04-23T12:37:29.981Z,18.10
2023-04-23T12:39:59.226Z,18.20
2023-04-23T12:42:26.180Z,18.20
2023-04-23T12:44:55.455Z,18.20
2023-04-23T12:47:22.420Z,18.20
2023-04-23T12:49:53.033Z,18.20
2023-04-23T12:52:20.033Z,18.20
2023-04-23T12:54:46.684Z,18.20
2023-04-23T12:57:14.261Z,18.20
2023-04-23T12:59:41.357Z,18.30
2023-04-23T13:02:09.460Z,18.20
2023-04-23T13:04:36.783Z,18.30
2023-04-23T13:07:03.784Z,18.20
2023-04-23T13:09:30.703Z,18.20
2023-04-23T13:11:57.646Z,18.20
2023-04-23T13:14:24.375Z,18.30
2023-04-23T13:16:51.079Z,18.30
2023-04-23T13:19:17.970Z,18.40
2023-04-23T13:21:45.437Z,18.50
2023-04-23T13:24:12.172Z,18.50
2023-04-23T13:26:38.948Z,18.60
2023-04-23T13:29:05.955Z,18.70
2023-04-23T13:31:33.207Z,18.70
2023-04-23T13:34:02.699Z,18.80
2023-04-23T13:36:29.393Z,18.90
2023-04-23T13:38:56.052Z,19.00
2023-04-23T13:41:22.808Z,18.90
2023-04-23T13:43:49.406Z,18.90
2023-04-23T13:46:16.642Z,19.00
2023-04-23T13:48:43.362Z,19.00
2023-04-23T13:51:21.854Z,19.00
2023-04-23T13:53:56.667Z,19.10
2023-04-23T13:56:23.321Z,19.00
2023-04-23T13:58:52.889Z,19.00
2023-04-23T14:01:19.706Z,18.80
2023-04-23T14:03:48.154Z,18.70
2023-04-23T14:06:14.806Z,18.60
2023-04-23T14:08:41.470Z,18.50
2023-04-23T14:11:08.073Z,18.30
2023-04-23T14:13:34.721Z,18.30
2023-04-23T14:16:03.587Z,18.30
2023-04-23T14:18:30.620Z,18.40
2023-04-23T14:20:57.407Z,18.60
2023-04-23T14:23:24.044Z,18.60
2023-04-23T14:25:59.237Z,18.60
2023-04-23T14:28:38.928Z,18.60
2023-04-23T14:31:05.725Z,18.40
2023-04-23T14:33:32.558Z,18.40
2023-04-23T14:35:59.200Z,18.30
2023-04-23T14:38:26.751Z,18.30
2023-04-23T14:40:53.805Z,18.20
2023-04-23T14:43:20.439Z,18.30
2023-04-23T14:45:47.410Z,18.30
2023-04-23T14:48:14.035Z,18.30
2023-04-23T14:50:40.680Z,18.40
2023-04-23T14:53:09.930Z,18.50
2023-04-23T14:55:36.796Z,18.40
2023-04-23T14:58:03.413Z,18.40
2023-04-23T15:00:30.207Z,18.40
2023-04-23T15:02:57.138Z,18.40
2023-04-23T15:05:24.167Z,18.40
2023-04-23T15:07:52.036Z,18.40
2023-04-23T15:10:20.475Z,18.30
2023-04-23T15:12:56.691Z,18.10
2023-04-23T15:15:37.027Z,17.90
2023-04-23T15:18:09.243Z,17.90
2023-04-23T15:20:37.643Z,17.90
2023-04-23T15:23:04.343Z,17.80
2023-04-23T15:25:33.131Z,17.80
2023-04-23T15:28:01.652Z,17.90
2023-04-23T15:30:28.934Z,17.80
2023-04-23T15:32:55.809Z,18.00
2023-04-23T15:35:26.737Z,18.10
2023-04-23T15:37:57.098Z,18.10
2023-04-23T15:40:23.860Z,18.10
2023-04-23T15:42:50.803Z,18.00
2023-04-23T15:45:18.041Z,18.00
2023-04-23T15:47:45.213Z,18.10
2023-04-23T15:50:12.875Z,18.10
2023-04-23T15:52:41.650Z,18.00
2023-04-23T15:55:08.711Z,18.00
2023-04-23T15:57:35.442Z,17.90
2023-04-23T16:00:02.130Z,17.90
2023-04-23T16:02:28.946Z,17.90
2023-04-23T16:04:56.315Z,17.80
2023-04-23T16:07:23.098Z,17.80
2023-04-23T16:09:49.931Z,17.80
2023-04-23T16:12:16.854Z,17.70
2023-04-23T16:14:43.718Z,17.80
2023-04-23T16:17:10.659Z,17.80
2023-04-23T16:19:37.592Z,17.70
2023-04-23T16:22:04.188Z,17.60
2023-04-23T16:24:31.011Z,17.60
2023-04-23T16:26:57.837Z,17.60
2023-04-23T16:29:24.833Z,17.60
2023-04-23T16:31:51.436Z,17.50
2023-04-23T16:34:18.054Z,17.50
2023-04-23T16:36:44.773Z,17.50
2023-04-23T16:39:11.568Z,17.40
2023-04-23T16:41:38.535Z,17.40
2023-04-23T16:44:05.297Z,17.40
2023-04-23T16:46:32.390Z,17.40
2023-04-23T16:48:59.840Z,17.30
2023-04-23T16:51:26.922Z,17.20
2023-04-23T16:53:53.837Z,17.20
2023-04-23T16:56:21.062Z,17.20
2023-04-23T16:58:47.917Z,16.90
2023-04-23T17:01:15.527Z,16.40
2023-04-23T17:03:42.346Z,16.10
2023-04-23T17:06:28.675Z,16.00
2023-04-23T17:08:59.742Z,15.80
2023-04-23T17:11:28.627Z,15.70
2023-04-23T17:13:56.057Z,15.60
2023-04-23T17:16:25.117Z,15.40
2023-04-23T17:18:52.029Z,15.00
2023-04-23T17:21:19.069Z,15.00
2023-04-23T17:23:46.441Z,15.00
2023-04-23T17:26:13.619Z,14.70
2023-04-23T17:28:43.213Z,14.70
2023-04-23T17:31:10.231Z,14.70
2023-04-23T17:33:37.096Z,14.60
2023-04-23T17:36:04.355Z,14.50
2023-04-23T17:38:31.173Z,14.30
2023-04-23T17:40:58.732Z,14.40
2023-04-23T17:43:25.820Z,14.20
2023-04-23T17:45:52.524Z,14.10
2023-04-23T17:48:21.450Z,14.10
2023-04-23T17:50:49.640Z,14.10
2023-04-23T17:53:16.345Z,14.10
2023-04-23T17:55:43.026Z,14.20
2023-04-23T17:58:09.673Z,14.20
2023-04-23T18:00:37.621Z,14.30
2023-04-23T18:03:04.777Z,14.10
2023-04-23T18:05:31.771Z,14.10
2023-04-23T18:07:58.623Z,14.20
2023-04-23T18:10:25.405Z,14.20
2023-04-23T18:12:52.353Z,14.20
2023-04-23T18:15:19.324Z,14.30
2023-04-23T18:17:47.275Z,14.40
2023-04-23T18:20:14.314Z,14.40
2023-04-23T18:22:42.077Z,14.50
2023-04-23T18:25:10.022Z,14.50
2023-04-23T18:27:36.802Z,14.50
2023-04-23T18:30:05.519Z,14.50
2023-04-23T18:35:04.077Z,14.40
2023-04-23T18:37:41.880Z,14.40
2023-04-23T18:40:09.273Z,14.30
2023-04-23T18:42:35.928Z,14.30
2023-04-23T18:45:04.133Z,14.30
2023-04-23T18:47:44.014Z,14.30
2023-04-23T18:50:30.765Z,14.30
2023-04-23T18:52:57.363Z,14.30
2023-04-23T18:55:24.017Z,14.30
2023-04-23T18:57:50.638Z,14.30
2023-04-23T19:00:17.351Z,14.40
2023-04-23T19:02:44.146Z,14.30
2023-04-23T19:05:11.347Z,14.30
2023-04-23T19:07:40.393Z,14.30
2023-04-23T19:10:07.913Z,14.30
2023-04-23T19:12:34.750Z,14.30
2023-04-23T19:15:01.327Z,14.20
2023-04-23T19:17:28.044Z,14.30
2023-04-23T19:19:54.975Z,14.30
2023-04-23T19:22:24.887Z,14.30
2023-04-23T19:24:51.521Z,14.20
2023-04-23T19:27:18.212Z,14.20
2023-04-23T19:29:46.597Z,14.10
2023-04-23T19:32:13.265Z,14.10
2023-04-23T19:34:39.905Z,14.10
2023-04-23T19:37:06.646Z,14.10
2023-04-23T19:39:33.343Z,14.00
2023-04-23T19:42:02.448Z,14.00
2023-04-23T19:44:29.113Z,14.00
2023-04-23T19:46:56.434Z,14.00
2023-04-23T19:49:23.394Z,14.00
2023-04-23T19:51:52.773Z,14.00
2023-04-23T19:54:19.398Z,13.90
2023-04-23T19:56:46.411Z,14.00
2023-04-23T19:59:20.698Z,13.90
2023-04-23T20:01:47.904Z,13.90
2023-04-23T20:04:14.893Z,13.90
2023-04-23T20:06:41.746Z,13.80
2023-04-23T20:09:08.541Z,13.70
2023-04-23T20:11:35.940Z,13.70
2023-04-23T20:14:03.245Z,13.70
2023-04-23T20:16:30.625Z,13.80
2023-04-23T20:18:57.812Z,13.80
2023-04-23T20:21:24.777Z,13.80
2023-04-23T20:23:51.609Z,13.80
2023-04-23T20:26:19.390Z,13.80
2023-04-23T20:28:48.146Z,13.80
2023-04-23T20:31:15.087Z,13.80
2023-04-23T20:33:41.782Z,13.80
2023-04-23T20:36:11.487Z,13.80
2023-04-23T20:38:38.963Z,13.80
2023-04-23T20:41:06.056Z,13.70
2023-04-23T20:43:34.539Z,13.70
2023-04-23T20:46:02.095Z,13.60
2023-04-23T20:48:31.935Z,13.60
2023-04-23T20:50:58.620Z,13.60
2023-04-23T20:53:26.260Z,13.70
2023-04-23T20:55:52.971Z,13.60
2023-04-23T20:58:19.584Z,13.60
2023-04-23T21:00:46.384Z,13.60
2023-04-23T21:03:13.306Z,13.60
2023-04-23T21:05:44.092Z,13.60
2023-04-23T21:08:11.497Z,13.50
2023-04-23T21:10:39.322Z,13.50
2023-04-23T21:13:07.986Z,13.50
2023-04-23T21:15:35.524Z,13.50
2023-04-23T21:18:02.702Z,13.40
2023-04-23T21:20:29.591Z,13.40
2023-04-23T21:22:56.228Z,13.40
2023-04-23T21:25:22.929Z,13.40
2023-04-23T21:27:50.356Z,13.40
2023-04-23T21:30:41.367Z,13.40
2023-04-23T21:33:07.971Z,13.40
2023-04-23T21:35:34.788Z,13.40
2023-04-23T21:38:01.794Z,13.30
2023-04-23T21:40:28.505Z,13.30
2023-04-23T21:42:55.386Z,13.20
2023-04-23T21:45:22.138Z,13.10
2023-04-23T21:47:48.923Z,13.10
2023-04-23T21:50:17.317Z,13.10
2023-04-23T21:52:43.996Z,13.00
2023-04-23T21:55:13.281Z,12.90
2023-04-23T21:57:40.298Z,12.80
2023-04-23T22:00:11.079Z,12.80
2023-04-23T22:02:37.877Z,12.80
2023-04-23T22:05:04.906Z,12.70
2023-04-23T22:07:34.609Z,12.70
2023-04-23T22:10:02.720Z,12.60
2023-04-23T22:12:29.326Z,12.60
2023-04-23T22:14:55.988Z,12.60
2023-04-23T22:17:25.664Z,12.70
2023-04-23T22:19:52.444Z,12.60
2023-04-23T22:22:19.120Z,12.70
2023-04-23T22:24:45.711Z,12.60
2023-04-23T22:27:12.315Z,12.40
2023-04-23T22:29:38.984Z,12.40
2023-04-23T22:32:05.688Z,12.50
2023-04-23T22:34:32.363Z,12.30
2023-04-23T22:36:58.979Z,12.40
2023-04-23T22:39:25.735Z,12.40
2023-04-23T22:41:52.795Z,12.50
2023-04-23T22:44:19.373Z,12.50
2023-04-23T22:46:45.974Z,12.50
2023-04-23T22:49:14.180Z,12.50
2023-04-23T22:51:40.807Z,12.50
2023-04-23T22:54:07.372Z,12.50
2023-04-23T22:56:34.330Z,12.50
2023-04-23T22:59:00.947Z,12.50
2023-04-23T23:01:27.973Z,12.50
2023-04-23T23:03:54.748Z,12.50
2023-04-23T23:06:21.974Z,12.50
2023-04-23T23:08:48.582Z,12.50
2023-04-23T23:11:15.188Z,12.40
2023-04-23T23:13:42.403Z,12.30
2023-04-23T23:16:09.200Z,12.30
2023-04-23T23:18:35.856Z,12.30
2023-04-23T23:21:02.868Z,12.20
2023-04-23T23:23:30.040Z,12.10
2023-04-23T23:25:59.407Z,12.10
2023-04-23T23:28:26.789Z,12.00
2023-04-23T23:30:53.589Z,12.00
2023-04-23T23:33:20.269Z,12.00
2023-04-23T23:35:46.850Z,11.90
2023-04-23T23:38:13.989Z,11.90
2023-04-23T23:40:40.693Z,11.70
2023-04-23T23:43:07.491Z,11.70
2023-04-23T23:45:34.574Z,11.70
2023-04-23T23:48:01.375Z,11.80
2023-04-23T23:50:28.016Z,11.80
2023-04-23T23:52:54.658Z,11.80
2023-04-23T23:55:21.343Z,11.60
2023-04-23T23:57:47.931Z,11.50
